Gildeskaal — LLDI — position and weather

sailwx.info

Track history (hours):
 
Tides and Currents Weather Stations Pressure Air Temp Water Temp Dewpoint Dewpoint Depression Visibility Wind Speed Wind Dir Waves Ship Positions

Gildeskaal

Last reported at 2014-Dec-11 20:31 UTC. Time now 2014-Dec-20 06:32 UTC.
Position N 67°07' E 014°01'.
Warning: this ship's position is 8 days out of date.

Length 52 m; draft 3.2 m.

Type: Ship. MMSI: 259680000.

Date/timePositionNaut miles runAvg speedWind from/ knotsBaromVisibWave heightAir tempDewpointWater temp
2014-Dec-11 20:31N 67°07' E 014°01'9 9.2
2014-Dec-11 19:33N 67°15' E 014°11'9 9.3
2014-Dec-11 18:33N 67°23' E 014°25'8 8.4
2014-Dec-11 17:34N 67°31' E 014°21'10 8.5
2014-Dec-11 16:26N 67°41' E 014°17'8 8.8
2014-Dec-11 15:33N 67°48' E 014°21'9 0.4
2014-Dec-10 13:29N 67°39' E 014°18'7 7.3
2014-Dec-10 12:33N 67°32' E 014°14'8 7.7
2014-Dec-10 11:33N 67°25' E 014°09'8 7.9
2014-Dec-10 10:33N 67°17' E 014°07'8 7.7
2014-Dec-10 09:33N 67°09' E 014°02'3 3.3
2014-Dec-10 08:33N 67°06' E 013°59'1 0.5
2014-Dec-10 06:21N 67°05' E 013°60'3 3.6
2014-Dec-10 05:33N 67°08' E 013°59'0 0.0
2014-Dec-10 04:30N 67°08' E 013°59'0 0.0
2014-Dec-10 03:10N 67°08' E 013°59'0 0.0
2014-Dec-10 02:33N 67°08' E 013°59'0 0.0
2014-Dec-10 01:31N 67°08' E 013°59'0 0.0
2014-Dec-10 00:33N 67°08' E 013°59'0 0.0
2014-Dec-09 23:28N 67°08' E 013°59'0 0.0
2014-Dec-09 22:33N 67°08' E 013°59'0 0.0
2014-Dec-09 20:23N 67°08' E 013°59'3 2.8
2014-Dec-09 19:18N 67°05' E 013°60'2 2.5
2014-Dec-09 18:33N 67°07' E 013°59'2 1.9
2014-Dec-09 17:33N 67°05' E 013°60'0 0.0
2014-Dec-09 14:22N 67°05' E 013°60'2 0.6
2014-Dec-09 10:33N 67°07' E 013°59'0 0.1
2014-Dec-09 08:33N 67°07' E 013°59'2 0.9
2014-Dec-09 06:21N 67°05' E 013°60'3 3.4
2014-Dec-09 05:30N 67°08' E 013°59'0 0.0
2014-Dec-09 03:25N 67°08' E 013°59'0 0.0
2014-Dec-09 02:33N 67°08' E 013°59'0 0.0
2014-Dec-08 23:31N 67°08' E 013°59'0 0.0
2014-Dec-08 20:20N 67°08' E 013°59'3 2.6
2014-Dec-08 19:11N 67°05' E 014°00'2 2.4
2014-Dec-08 18:32N 67°07' E 013°59'2 1.5
2014-Dec-08 17:33N 67°05' E 014°00'3 2.4
2014-Dec-08 16:21N 67°08' E 013°59'0 0.0
2014-Dec-08 13:30N 67°08' E 013°59'2 0.6
2014-Dec-08 10:29N 67°06' E 013°59'1 0.4
2014-Dec-08 08:33N 67°07' E 013°59'2 0.8
2014-Dec-08 06:21N 67°05' E 014°00'3 3.7
2014-Dec-08 05:33N 67°08' E 013°59'0 0.0
2014-Dec-08 04:32N 67°08' E 013°59'0 0.0
2014-Dec-08 03:27N 67°08' E 013°59'0 0.0
2014-Dec-08 02:33N 67°08' E 013°59'0 0.0
2014-Dec-08 01:32N 67°08' E 013°59'0 0.0
2014-Dec-08 00:33N 67°08' E 013°59'0 0.0
2014-Dec-07 23:31N 67°08' E 013°59'0 0.0
2014-Dec-07 22:31N 67°08' E 013°59'0 0.0
2014-Dec-07 21:24N 67°08' E 013°59'0 0.0
2014-Dec-07 20:08N 67°08' E 013°59'3 1.5
2014-Dec-07 18:15N 67°05' E 013°60'2 2.8
2014-Dec-07 17:33N 67°07' E 013°59'2 1.1
2014-Dec-07 16:04N 67°06' E 013°59'3 4.9
2014-Dec-07 15:33N 67°08' E 013°59'1 0.9
2014-Dec-07 14:33N 67°07' E 013°59'2 0.4
2014-Dec-07 09:13N 67°05' E 014°00'2 2.3
2014-Dec-07 08:31N 67°07' E 013°59'2 0.1
2014-Dec-06 16:33N 67°05' E 013°60'1 0.1
2014-Dec-06 10:32N 67°06' E 013°60'2 2.4
2014-Dec-06 09:33N 67°08' E 013°59'1 1.3
2014-Dec-06 08:33N 67°07' E 013°59'2 1.3
2014-Dec-06 07:20N 67°05' E 013°60'3 3.7
2014-Dec-06 06:33N 67°08' E 013°59'0 0.0
2014-Dec-06 05:33N 67°08' E 013°59'0 0.0
2014-Dec-06 04:33N 67°08' E 013°59'0 0.0
2014-Dec-06 03:33N 67°08' E 013°59'0 0.0
2014-Dec-06 02:33N 67°08' E 013°59'0 0.0
2014-Dec-06 01:33N 67°08' E 013°59'0 0.0
2014-Dec-06 00:33N 67°08' E 013°59'0 0.0
2014-Dec-05 23:33N 67°08' E 013°59'0 0.0
2014-Dec-05 22:33N 67°08' E 013°59'0 0.0
2014-Dec-05 21:33N 67°08' E 013°59'0 0.0
2014-Dec-05 20:27N 67°08' E 013°59'3 2.3
2014-Dec-05 19:11N 67°05' E 013°60'2 2.4
2014-Dec-05 18:32N 67°07' E 013°59'1 0.7
2014-Dec-05 16:32N 67°05' E 013°59'0 0.1
2014-Dec-05 14:22N 67°05' E 014°00'3 3.5
2014-Dec-05 13:32N 67°08' E 013°59'0 0.0
2014-Dec-05 12:28N 67°08' E 013°59'2 1.1
2014-Dec-05 10:30N 67°06' E 013°59'2 2.2
2014-Dec-05 09:32N 67°08' E 013°59'1 1.3
2014-Dec-05 08:33N 67°07' E 013°59'2 1.1
2014-Dec-05 06:33N 67°05' E 014°03'3 3.3
2014-Dec-05 05:33N 67°08' E 013°59'0 0.0
2014-Dec-05 04:33N 67°08' E 013°59'0 0.0
2014-Dec-05 03:33N 67°08' E 013°59'0 0.0
2014-Dec-05 02:33N 67°08' E 013°59'0 0.0
2014-Dec-05 01:33N 67°08' E 013°59'0 0.0
2014-Dec-05 00:33N 67°08' E 013°59'0 0.0
2014-Dec-04 23:33N 67°08' E 013°59'0 0.0
2014-Dec-04 22:33N 67°08' E 013°59'0 0.0
2014-Dec-04 21:33N 67°08' E 013°59'0 0.0
2014-Dec-04 20:33N 67°08' E 013°59'4 4.0
2014-Dec-04 19:33N 67°05' E 014°04'3 2.7
2014-Dec-04 18:34N 67°07' E 013°59'1 0.9
2014-Dec-04 17:33N 67°06' E 013°59'3 2.5
2014-Dec-04 16:33N 67°08' E 013°59'3 3.3
2014-Dec-04 15:32N 67°05' E 014°02'0 0.3
2014-Dec-04 14:33N 67°05' E 014°03'4 3.6
2014-Dec-04 13:33N 67°08' E 013°59'0 0.0
2014-Dec-04 12:33N 67°08' E 013°59'3 2.6
2014-Dec-04 11:34N 67°06' E 013°60'0 0.4
2014-Dec-04 10:33N 67°06' E 013°59'2 2.3
2014-Dec-04 09:34N 67°08' E 013°59'1 1.4
2014-Dec-04 08:34N 67°07' E 013°59'3 2.5
2014-Dec-04 07:19N 67°04' E 014°04'1 1.5
2014-Dec-04 06:33N 67°05' E 014°03'3 3.2
2014-Dec-04 05:33N 67°08' E 013°59'0 0.0
2014-Dec-04 04:33N 67°08' E 013°59'0 0.0
2014-Dec-04 03:33N 67°08' E 013°59'0 0.0
2014-Dec-04 02:33N 67°08' E 013°59'0 0.0
2014-Dec-04 01:33N 67°08' E 013°59'0 0.0
2014-Dec-04 00:33N 67°08' E 013°59'0 0.0
2014-Dec-03 23:34N 67°08' E 013°59'0 0.0
2014-Dec-03 22:33N 67°08' E 013°59'0 0.0
2014-Dec-03 21:33N 67°08' E 013°59'0 0.3
2014-Dec-03 20:33N 67°08' E 013°58'3 3.2
2014-Dec-03 19:33N 67°05' E 014°02'2 1.9
2014-Dec-03 18:34N 67°06' E 013°59'1 1.2
2014-Dec-03 17:33N 67°05' E 014°00'3 2.9
2014-Dec-03 16:33N 67°08' E 013°59'3 3.3
2014-Dec-03 15:34N 67°05' E 014°03'1 0.7
2014-Dec-03 14:34N 67°05' E 014°04'4 3.9
2014-Dec-03 13:33N 67°08' E 013°59'0 0.0
2014-Dec-03 12:33N 67°08' E 013°59'2 1.0
2014-Dec-03 10:33N 67°06' E 013°59'2 2.1
2014-Dec-03 09:33N 67°08' E 013°59'3 0.9
2014-Dec-03 06:26N 67°05' E 013°60'3 3.3
2014-Dec-03 05:33N 67°08' E 013°59'0 0.0
2014-Dec-03 04:30N 67°08' E 013°59'0 0.0
2014-Dec-03 03:32N 67°08' E 013°59'0 0.0
2014-Dec-03 02:33N 67°08' E 013°59'0 0.0
2014-Dec-03 01:33N 67°08' E 013°59'0 0.0
2014-Dec-03 00:33N 67°08' E 013°59'0 0.0
2014-Dec-02 23:33N 67°08' E 013°59'0 0.0
2014-Dec-02 22:33N 67°08' E 013°59'0 0.0
2014-Dec-02 21:33N 67°08' E 013°59'0 0.0
2014-Dec-02 20:33N 67°08' E 013°59'3 2.2
2014-Dec-02 19:14N 67°05' E 014°00'1 1.5
2014-Dec-02 18:30N 67°06' E 013°59'0 0.3
2014-Dec-02 17:28N 67°06' E 013°59'2 2.1
2014-Dec-02 16:23N 67°08' E 013°59'2 1.1
2014-Dec-02 14:16N 67°06' E 013°59'2 2.6
2014-Dec-02 13:22N 67°08' E 013°59'2 0.9
2014-Dec-02 10:33N 67°06' E 013°59'2 0.8
2014-Dec-02 08:33N 67°07' E 013°59'2 0.7
2014-Dec-02 06:17N 67°06' E 013°59'2 0.6
2014-Dec-02 02:23N 67°08' E 013°59'  
Track history (hours):
 
Tides and Currents Weather Stations Pressure Air Temp Water Temp Dewpoint Dewpoint Depression Visibility Wind Speed Wind Dir Waves Ship Positions

Gildeskaal

Last reported at 2014-Dec-11 20:31 UTC. Time now 2014-Dec-20 06:32 UTC.
Position N 67°07' E 014°01'.
Warning: this ship's position is 8 days out of date.

Length 52 m; draft 3.2 m.

Type: Ship. MMSI: 259680000.

Date/timePositionNaut miles runAvg speedWind from/ knotsBaromVisibWave heightAir tempDewpointWater temp
2014-Dec-11 20:31N 67°07' E 014°01'9 9.2
2014-Dec-11 19:33N 67°15' E 014°11'9 9.3
2014-Dec-11 18:33N 67°23' E 014°25'8 8.4
2014-Dec-11 17:34N 67°31' E 014°21'10 8.5
2014-Dec-11 16:26N 67°41' E 014°17'8 8.8
2014-Dec-11 15:33N 67°48' E 014°21'9 0.4
2014-Dec-10 13:29N 67°39' E 014°18'7 7.3
2014-Dec-10 12:33N 67°32' E 014°14'8 7.7
2014-Dec-10 11:33N 67°25' E 014°09'8 7.9
2014-Dec-10 10:33N 67°17' E 014°07'8 7.7
2014-Dec-10 09:33N 67°09' E 014°02'3 3.3
2014-Dec-10 08:33N 67°06' E 013°59'1 0.5
2014-Dec-10 06:21N 67°05' E 013°60'3 3.6
2014-Dec-10 05:33N 67°08' E 013°59'0 0.0
2014-Dec-10 04:30N 67°08' E 013°59'0 0.0
2014-Dec-10 03:10N 67°08' E 013°59'0 0.0
2014-Dec-10 02:33N 67°08' E 013°59'0 0.0
2014-Dec-10 01:31N 67°08' E 013°59'0 0.0
2014-Dec-10 00:33N 67°08' E 013°59'0 0.0
2014-Dec-09 23:28N 67°08' E 013°59'0 0.0
2014-Dec-09 22:33N 67°08' E 013°59'0 0.0
2014-Dec-09 20:23N 67°08' E 013°59'3 2.8
2014-Dec-09 19:18N 67°05' E 013°60'2 2.5
2014-Dec-09 18:33N 67°07' E 013°59'2 1.9
2014-Dec-09 17:33N 67°05' E 013°60'0 0.0
2014-Dec-09 14:22N 67°05' E 013°60'2 0.6
2014-Dec-09 10:33N 67°07' E 013°59'0 0.1
2014-Dec-09 08:33N 67°07' E 013°59'2 0.9
2014-Dec-09 06:21N 67°05' E 013°60'3 3.4
2014-Dec-09 05:30N 67°08' E 013°59'0 0.0
2014-Dec-09 03:25N 67°08' E 013°59'0 0.0
2014-Dec-09 02:33N 67°08' E 013°59'0 0.0
2014-Dec-08 23:31N 67°08' E 013°59'0 0.0
2014-Dec-08 20:20N 67°08' E 013°59'3 2.6
2014-Dec-08 19:11N 67°05' E 014°00'2 2.4
2014-Dec-08 18:32N 67°07' E 013°59'2 1.5
2014-Dec-08 17:33N 67°05' E 014°00'3 2.4
2014-Dec-08 16:21N 67°08' E 013°59'0 0.0
2014-Dec-08 13:30N 67°08' E 013°59'2 0.6
2014-Dec-08 10:29N 67°06' E 013°59'1 0.4
2014-Dec-08 08:33N 67°07' E 013°59'2 0.8
2014-Dec-08 06:21N 67°05' E 014°00'3 3.7
2014-Dec-08 05:33N 67°08' E 013°59'0 0.0
2014-Dec-08 04:32N 67°08' E 013°59'0 0.0
2014-Dec-08 03:27N 67°08' E 013°59'0 0.0
2014-Dec-08 02:33N 67°08' E 013°59'0 0.0
2014-Dec-08 01:32N 67°08' E 013°59'0 0.0
2014-Dec-08 00:33N 67°08' E 013°59'0 0.0
2014-Dec-07 23:31N 67°08' E 013°59'0 0.0
2014-Dec-07 22:31N 67°08' E 013°59'0 0.0
2014-Dec-07 21:24N 67°08' E 013°59'0 0.0
2014-Dec-07 20:08N 67°08' E 013°59'3 1.5
2014-Dec-07 18:15N 67°05' E 013°60'2 2.8
2014-Dec-07 17:33N 67°07' E 013°59'2 1.1
2014-Dec-07 16:04N 67°06' E 013°59'3 4.9
2014-Dec-07 15:33N 67°08' E 013°59'1 0.9
2014-Dec-07 14:33N 67°07' E 013°59'2 0.4
2014-Dec-07 09:13N 67°05' E 014°00'2 2.3
2014-Dec-07 08:31N 67°07' E 013°59'2 0.1
2014-Dec-06 16:33N 67°05' E 013°60'1 0.1
2014-Dec-06 10:32N 67°06' E 013°60'2 2.4
2014-Dec-06 09:33N 67°08' E 013°59'1 1.3
2014-Dec-06 08:33N 67°07' E 013°59'2 1.3
2014-Dec-06 07:20N 67°05' E 013°60'3 3.7
2014-Dec-06 06:33N 67°08' E 013°59'0 0.0
2014-Dec-06 05:33N 67°08' E 013°59'0 0.0
2014-Dec-06 04:33N 67°08' E 013°59'0 0.0
2014-Dec-06 03:33N 67°08' E 013°59'0 0.0
2014-Dec-06 02:33N 67°08' E 013°59'0 0.0
2014-Dec-06 01:33N 67°08' E 013°59'0 0.0
2014-Dec-06 00:33N 67°08' E 013°59'0 0.0
2014-Dec-05 23:33N 67°08' E 013°59'0 0.0
2014-Dec-05 22:33N 67°08' E 013°59'0 0.0
2014-Dec-05 21:33N 67°08' E 013°59'0 0.0
2014-Dec-05 20:27N 67°08' E 013°59'3 2.3
2014-Dec-05 19:11N 67°05' E 013°60'2 2.4
2014-Dec-05 18:32N 67°07' E 013°59'1 0.7
2014-Dec-05 16:32N 67°05' E 013°59'0 0.1
2014-Dec-05 14:22N 67°05' E 014°00'3 3.5
2014-Dec-05 13:32N 67°08' E 013°59'0 0.0
2014-Dec-05 12:28N 67°08' E 013°59'2 1.1
2014-Dec-05 10:30N 67°06' E 013°59'2 2.2
2014-Dec-05 09:32N 67°08' E 013°59'1 1.3
2014-Dec-05 08:33N 67°07' E 013°59'2 1.1
2014-Dec-05 06:33N 67°05' E 014°03'3 3.3
2014-Dec-05 05:33N 67°08' E 013°59'0 0.0
2014-Dec-05 04:33N 67°08' E 013°59'0 0.0
2014-Dec-05 03:33N 67°08' E 013°59'0 0.0
2014-Dec-05 02:33N 67°08' E 013°59'0 0.0
2014-Dec-05 01:33N 67°08' E 013°59'0 0.0
2014-Dec-05 00:33N 67°08' E 013°59'0 0.0
2014-Dec-04 23:33N 67°08' E 013°59'0 0.0
2014-Dec-04 22:33N 67°08' E 013°59'0 0.0
2014-Dec-04 21:33N 67°08' E 013°59'0 0.0
2014-Dec-04 20:33N 67°08' E 013°59'4 4.0
2014-Dec-04 19:33N 67°05' E 014°04'3 2.7
2014-Dec-04 18:34N 67°07' E 013°59'1 0.9
2014-Dec-04 17:33N 67°06' E 013°59'3 2.5
2014-Dec-04 16:33N 67°08' E 013°59'3 3.3
2014-Dec-04 15:32N 67°05' E 014°02'0 0.3
2014-Dec-04 14:33N 67°05' E 014°03'4 3.6
2014-Dec-04 13:33N 67°08' E 013°59'0 0.0
2014-Dec-04 12:33N 67°08' E 013°59'3 2.6
2014-Dec-04 11:34N 67°06' E 013°60'0 0.4
2014-Dec-04 10:33N 67°06' E 013°59'2 2.3
2014-Dec-04 09:34N 67°08' E 013°59'1 1.4
2014-Dec-04 08:34N 67°07' E 013°59'3 2.5
2014-Dec-04 07:19N 67°04' E 014°04'1 1.5
2014-Dec-04 06:33N 67°05' E 014°03'3 3.2
2014-Dec-04 05:33N 67°08' E 013°59'0 0.0
2014-Dec-04 04:33N 67°08' E 013°59'0 0.0
2014-Dec-04 03:33N 67°08' E 013°59'0 0.0
2014-Dec-04 02:33N 67°08' E 013°59'0 0.0
2014-Dec-04 01:33N 67°08' E 013°59'0 0.0
2014-Dec-04 00:33N 67°08' E 013°59'0 0.0
2014-Dec-03 23:34N 67°08' E 013°59'0 0.0
2014-Dec-03 22:33N 67°08' E 013°59'0 0.0
2014-Dec-03 21:33N 67°08' E 013°59'0 0.3
2014-Dec-03 20:33N 67°08' E 013°58'3 3.2
2014-Dec-03 19:33N 67°05' E 014°02'2 1.9
2014-Dec-03 18:34N 67°06' E 013°59'1 1.2
2014-Dec-03 17:33N 67°05' E 014°00'3 2.9
2014-Dec-03 16:33N 67°08' E 013°59'3 3.3
2014-Dec-03 15:34N 67°05' E 014°03'1 0.7
2014-Dec-03 14:34N 67°05' E 014°04'4 3.9
2014-Dec-03 13:33N 67°08' E 013°59'0 0.0
2014-Dec-03 12:33N 67°08' E 013°59'2 1.0
2014-Dec-03 10:33N 67°06' E 013°59'2 2.1
2014-Dec-03 09:33N 67°08' E 013°59'3 0.9
2014-Dec-03 06:26N 67°05' E 013°60'3 3.3
2014-Dec-03 05:33N 67°08' E 013°59'0 0.0
2014-Dec-03 04:30N 67°08' E 013°59'0 0.0
2014-Dec-03 03:32N 67°08' E 013°59'0 0.0
2014-Dec-03 02:33N 67°08' E 013°59'0 0.0
2014-Dec-03 01:33N 67°08' E 013°59'0 0.0
2014-Dec-03 00:33N 67°08' E 013°59'0 0.0
2014-Dec-02 23:33N 67°08' E 013°59'0 0.0
2014-Dec-02 22:33N 67°08' E 013°59'0 0.0
2014-Dec-02 21:33N 67°08' E 013°59'0 0.0
2014-Dec-02 20:33N 67°08' E 013°59'3 2.2
2014-Dec-02 19:14N 67°05' E 014°00'1 1.5
2014-Dec-02 18:30N 67°06' E 013°59'0 0.3
2014-Dec-02 17:28N 67°06' E 013°59'2 2.1
2014-Dec-02 16:23N 67°08' E 013°59'2 1.1
2014-Dec-02 14:16N 67°06' E 013°59'2 2.6
2014-Dec-02 13:22N 67°08' E 013°59'2 0.9
2014-Dec-02 10:33N 67°06' E 013°59'2 0.8
2014-Dec-02 08:33N 67°07' E 013°59'2 0.7
2014-Dec-02 06:17N 67°06' E 013°59'2 0.6
2014-Dec-02 02:23N 67°08' E 013°59'  

Dump ship's entire track history